sensor_id;sensor_type;location;lat;lon;timestamp;temperature;humidity
8002;DHT22;4046;48.774;8.732;2023-04-08T00:00:20;20.50;79.10
8002;DHT22;4046;48.774;8.732;2023-04-08T00:02:46;20.60;79.30
8002;DHT22;4046;48.774;8.732;2023-04-08T00:05:12;20.50;79.10
8002;DHT22;4046;48.774;8.732;2023-04-08T00:07:39;20.60;79.30
8002;DHT22;4046;48.774;8.732;2023-04-08T00:10:05;20.60;80.00
8002;DHT22;4046;48.774;8.732;2023-04-08T00:12:32;20.60;79.30
8002;DHT22;4046;48.774;8.732;2023-04-08T00:14:58;20.60;79.30
8002;DHT22;4046;48.774;8.732;2023-04-08T00:17:24;20.60;79.30
8002;DHT22;4046;48.774;8.732;2023-04-08T00:19:50;20.50;79.20
8002;DHT22;4046;48.774;8.732;2023-04-08T00:22:17;20.50;79.10
8002;DHT22;4046;48.774;8.732;2023-04-08T00:24:43;20.50;79.10
8002;DHT22;4046;48.774;8.732;2023-04-08T00:27:09;20.50;79.20
8002;DHT22;4046;48.774;8.732;2023-04-08T00:29:35;20.60;79.30
8002;DHT22;4046;48.774;8.732;2023-04-08T00:32:02;20.60;79.30
8002;DHT22;4046;48.774;8.732;2023-04-08T00:34:29;20.50;79.10
8002;DHT22;4046;48.774;8.732;2023-04-08T00:36:55;20.50;79.20
8002;DHT22;4046;48.774;8.732;2023-04-08T00:39:21;20.50;79.20
8002;DHT22;4046;48.774;8.732;2023-04-08T00:41:47;20.50;79.20
8002;DHT22;4046;48.774;8.732;2023-04-08T00:44:14;20.50;79.20
8002;DHT22;4046;48.774;8.732;2023-04-08T00:46:40;20.60;79.30
8002;DHT22;4046;48.774;8.732;2023-04-08T00:49:06;20.50;79.10
8002;DHT22;4046;48.774;8.732;2023-04-08T00:51:33;20.50;79.20
8002;DHT22;4046;48.774;8.732;2023-04-08T00:54:03;20.60;79.30
8002;DHT22;4046;48.774;8.732;2023-04-08T00:56:31;20.50;79.20
8002;DHT22;4046;48.774;8.732;2023-04-08T00:59:00;20.50;79.20
8002;DHT22;4046;48.774;8.732;2023-04-08T01:09:52;20.50;79.20
8002;DHT22;4046;48.774;8.732;2023-04-08T01:12:25;20.50;79.20
8002;DHT22;4046;48.774;8.732;2023-04-08T01:14:58;20.50;79.30
8002;DHT22;4046;48.774;8.732;2023-04-08T01:17:26;20.50;79.20
8002;DHT22;4046;48.774;8.732;2023-04-08T01:19:53;20.50;79.20
8002;DHT22;4046;48.774;8.732;2023-04-08T01:25:05;20.50;79.20
8002;DHT22;4046;48.774;8.732;2023-04-08T01:27:33;20.50;79.20
8002;DHT22;4046;48.774;8.732;2023-04-08T01:30:02;20.50;79.20
8002;DHT22;4046;48.774;8.732;2023-04-08T01:32:31;20.60;79.30
8002;DHT22;4046;48.774;8.732;2023-04-08T01:35:00;20.50;79.20
8002;DHT22;4046;48.774;8.732;2023-04-08T01:37:27;20.50;79.20
8002;DHT22;4046;48.774;8.732;2023-04-08T01:39:55;20.50;79.20
8002;DHT22;4046;48.774;8.732;2023-04-08T01:42:23;20.50;79.20
8002;DHT22;4046;48.774;8.732;2023-04-08T01:44:51;20.50;79.20
8002;DHT22;4046;48.774;8.732;2023-04-08T01:47:18;20.50;79.30
8002;DHT22;4046;48.774;8.732;2023-04-08T01:49:45;20.50;79.20
8002;DHT22;4046;48.774;8.732;2023-04-08T01:52:12;20.50;79.30
8002;DHT22;4046;48.774;8.732;2023-04-08T01:54:39;20.50;79.30
8002;DHT22;4046;48.774;8.732;2023-04-08T01:57:07;20.50;79.30
8002;DHT22;4046;48.774;8.732;2023-04-08T01:59:37;20.50;79.30
8002;DHT22;4046;48.774;8.732;2023-04-08T02:02:05;20.50;79.30
8002;DHT22;4046;48.774;8.732;2023-04-08T02:04:34;20.50;79.20
8002;DHT22;4046;48.774;8.732;2023-04-08T02:07:01;20.50;79.20
8002;DHT22;4046;48.774;8.732;2023-04-08T02:09:28;20.50;79.30
8002;DHT22;4046;48.774;8.732;2023-04-08T02:11:54;20.50;79.30
8002;DHT22;4046;48.774;8.732;2023-04-08T02:14:22;20.50;79.30
8002;DHT22;4046;48.774;8.732;2023-04-08T02:16:50;20.50;79.40
8002;DHT22;4046;48.774;8.732;2023-04-08T02:19:33;20.50;79.40
8002;DHT22;4046;48.774;8.732;2023-04-08T02:22:09;20.50;79.30
8002;DHT22;4046;48.774;8.732;2023-04-08T02:24:37;20.50;79.30
8002;DHT22;4046;48.774;8.732;2023-04-08T02:27:07;20.50;79.30
8002;DHT22;4046;48.774;8.732;2023-04-08T02:29:35;20.50;79.30
8002;DHT22;4046;48.774;8.732;2023-04-08T02:32:03;20.50;79.30
8002;DHT22;4046;48.774;8.732;2023-04-08T02:34:31;20.50;79.30
8002;DHT22;4046;48.774;8.732;2023-04-08T02:36:57;20.50;79.30
8002;DHT22;4046;48.774;8.732;2023-04-08T02:39:31;20.50;79.30
8002;DHT22;4046;48.774;8.732;2023-04-08T02:41:57;20.50;79.30
8002;DHT22;4046;48.774;8.732;2023-04-08T02:44:24;20.50;79.40
8002;DHT22;4046;48.774;8.732;2023-04-08T02:46:50;20.50;79.30
8002;DHT22;4046;48.774;8.732;2023-04-08T02:49:16;20.50;79.30
8002;DHT22;4046;48.774;8.732;2023-04-08T02:51:42;20.50;79.40
8002;DHT22;4046;48.774;8.732;2023-04-08T02:54:08;20.50;79.40
8002;DHT22;4046;48.774;8.732;2023-04-08T02:56:35;20.50;79.40
8002;DHT22;4046;48.774;8.732;2023-04-08T02:59:01;20.50;79.40
8002;DHT22;4046;48.774;8.732;2023-04-08T03:01:27;20.50;79.40
8002;DHT22;4046;48.774;8.732;2023-04-08T03:03:53;20.50;79.40
8002;DHT22;4046;48.774;8.732;2023-04-08T03:06:19;20.50;79.40
8002;DHT22;4046;48.774;8.732;2023-04-08T03:08:46;20.50;79.40
8002;DHT22;4046;48.774;8.732;2023-04-08T03:11:12;20.50;79.40
8002;DHT22;4046;48.774;8.732;2023-04-08T03:13:38;20.50;79.40
8002;DHT22;4046;48.774;8.732;2023-04-08T03:16:04;20.50;79.30
8002;DHT22;4046;48.774;8.732;2023-04-08T03:18:31;20.50;79.30
8002;DHT22;4046;48.774;8.732;2023-04-08T03:20:57;20.50;80.10
8002;DHT22;4046;48.774;8.732;2023-04-08T03:23:23;20.50;79.40
8002;DHT22;4046;48.774;8.732;2023-04-08T03:25:49;20.50;79.40
8002;DHT22;4046;48.774;8.732;2023-04-08T03:28:16;20.50;79.40
8002;DHT22;4046;48.774;8.732;2023-04-08T03:30:42;20.50;79.50
8002;DHT22;4046;48.774;8.732;2023-04-08T03:33:08;20.50;79.40
8002;DHT22;4046;48.774;8.732;2023-04-08T03:35:34;20.50;79.40
8002;DHT22;4046;48.774;8.732;2023-04-08T03:38:01;20.50;79.40
8002;DHT22;4046;48.774;8.732;2023-04-08T03:40:27;20.50;79.50
8002;DHT22;4046;48.774;8.732;2023-04-08T03:42:53;20.50;79.40
8002;DHT22;4046;48.774;8.732;2023-04-08T03:45:19;20.50;79.40
8002;DHT22;4046;48.774;8.732;2023-04-08T03:47:45;20.50;79.40
8002;DHT22;4046;48.774;8.732;2023-04-08T03:50:12;20.50;79.40
8002;DHT22;4046;48.774;8.732;2023-04-08T03:52:38;20.50;79.40
8002;DHT22;4046;48.774;8.732;2023-04-08T03:55:04;20.50;79.40
8002;DHT22;4046;48.774;8.732;2023-04-08T03:57:30;20.50;79.40
8002;DHT22;4046;48.774;8.732;2023-04-08T03:59:57;20.50;79.40
8002;DHT22;4046;48.774;8.732;2023-04-08T04:02:23;20.50;79.40
8002;DHT22;4046;48.774;8.732;2023-04-08T04:04:49;20.50;79.40
8002;DHT22;4046;48.774;8.732;2023-04-08T04:07:15;20.50;79.40
8002;DHT22;4046;48.774;8.732;2023-04-08T04:09:41;20.50;79.40
8002;DHT22;4046;48.774;8.732;2023-04-08T04:12:07;20.50;79.40
8002;DHT22;4046;48.774;8.732;2023-04-08T04:14:34;20.50;79.40
8002;DHT22;4046;48.774;8.732;2023-04-08T04:17:00;20.50;79.50
8002;DHT22;4046;48.774;8.732;2023-04-08T04:19:29;20.50;79.40
8002;DHT22;4046;48.774;8.732;2023-04-08T04:21:56;20.50;79.40
8002;DHT22;4046;48.774;8.732;2023-04-08T04:24:22;20.50;79.50
8002;DHT22;4046;48.774;8.732;2023-04-08T04:26:48;20.50;79.40
8002;DHT22;4046;48.774;8.732;2023-04-08T04:29:14;20.50;79.50
8002;DHT22;4046;48.774;8.732;2023-04-08T04:31:41;20.50;79.40
8002;DHT22;4046;48.774;8.732;2023-04-08T04:34:07;20.50;79.40
8002;DHT22;4046;48.774;8.732;2023-04-08T04:36:33;20.50;79.40
8002;DHT22;4046;48.774;8.732;2023-04-08T04:38:59;20.50;79.40
8002;DHT22;4046;48.774;8.732;2023-04-08T04:41:25;20.50;79.40
8002;DHT22;4046;48.774;8.732;2023-04-08T04:43:52;20.50;79.50
8002;DHT22;4046;48.774;8.732;2023-04-08T04:46:18;20.50;79.50
8002;DHT22;4046;48.774;8.732;2023-04-08T04:48:44;20.50;79.50
8002;DHT22;4046;48.774;8.732;2023-04-08T04:51:10;20.50;79.40
8002;DHT22;4046;48.774;8.732;2023-04-08T04:53:37;20.50;79.50
8002;DHT22;4046;48.774;8.732;2023-04-08T04:56:03;20.50;79.50
8002;DHT22;4046;48.774;8.732;2023-04-08T04:58:29;20.50;79.50
8002;DHT22;4046;48.774;8.732;2023-04-08T05:00:56;20.50;79.50
8002;DHT22;4046;48.774;8.732;2023-04-08T05:03:22;20.50;79.50
8002;DHT22;4046;48.774;8.732;2023-04-08T05:05:52;20.50;79.50
8002;DHT22;4046;48.774;8.732;2023-04-08T05:08:19;20.50;79.50
8002;DHT22;4046;48.774;8.732;2023-04-08T05:10:46;20.50;79.50
8002;DHT22;4046;48.774;8.732;2023-04-08T05:13:12;20.50;79.50
8002;DHT22;4046;48.774;8.732;2023-04-08T05:15:38;20.50;79.50
8002;DHT22;4046;48.774;8.732;2023-04-08T05:18:04;20.50;79.50
8002;DHT22;4046;48.774;8.732;2023-04-08T05:20:30;20.50;79.50
8002;DHT22;4046;48.774;8.732;2023-04-08T05:22:57;20.50;79.50
8002;DHT22;4046;48.774;8.732;2023-04-08T05:25:23;20.50;79.50
8002;DHT22;4046;48.774;8.732;2023-04-08T05:27:49;20.50;79.40
8002;DHT22;4046;48.774;8.732;2023-04-08T05:30:15;20.50;79.40
8002;DHT22;4046;48.774;8.732;2023-04-08T05:32:42;20.50;79.40
8002;DHT22;4046;48.774;8.732;2023-04-08T05:35:08;20.50;79.40
8002;DHT22;4046;48.774;8.732;2023-04-08T05:37:35;20.50;79.40
8002;DHT22;4046;48.774;8.732;2023-04-08T05:40:01;20.50;79.40
8002;DHT22;4046;48.774;8.732;2023-04-08T05:42:27;20.50;79.40
8002;DHT22;4046;48.774;8.732;2023-04-08T05:44:53;20.50;79.50
8002;DHT22;4046;48.774;8.732;2023-04-08T05:47:19;20.50;79.40
8002;DHT22;4046;48.774;8.732;2023-04-08T05:49:46;20.50;79.40
8002;DHT22;4046;48.774;8.732;2023-04-08T05:52:12;20.50;79.40
8002;DHT22;4046;48.774;8.732;2023-04-08T05:54:41;20.50;79.40
8002;DHT22;4046;48.774;8.732;2023-04-08T05:57:08;20.50;79.40
8002;DHT22;4046;48.774;8.732;2023-04-08T05:59:35;20.50;79.40
8002;DHT22;4046;48.774;8.732;2023-04-08T06:02:01;20.50;79.40
8002;DHT22;4046;48.774;8.732;2023-04-08T06:04:27;20.50;79.40
8002;DHT22;4046;48.774;8.732;2023-04-08T06:06:54;20.50;79.40
8002;DHT22;4046;48.774;8.732;2023-04-08T06:09:21;20.50;79.40
8002;DHT22;4046;48.774;8.732;2023-04-08T06:11:47;20.50;79.40
8002;DHT22;4046;48.774;8.732;2023-04-08T06:14:15;20.50;79.40
8002;DHT22;4046;48.774;8.732;2023-04-08T06:16:41;20.50;79.40
8002;DHT22;4046;48.774;8.732;2023-04-08T06:19:08;20.50;79.40
8002;DHT22;4046;48.774;8.732;2023-04-08T06:21:34;20.50;79.50
8002;DHT22;4046;48.774;8.732;2023-04-08T06:24:00;20.50;79.40
8002;DHT22;4046;48.774;8.732;2023-04-08T06:26:26;20.50;79.40
8002;DHT22;4046;48.774;8.732;2023-04-08T06:28:53;20.50;79.40
8002;DHT22;4046;48.774;8.732;2023-04-08T06:31:20;20.50;79.30
8002;DHT22;4046;48.774;8.732;2023-04-08T06:33:46;20.50;79.30
8002;DHT22;4046;48.774;8.732;2023-04-08T06:36:12;20.50;79.40
8002;DHT22;4046;48.774;8.732;2023-04-08T06:38:39;20.50;79.40
8002;DHT22;4046;48.774;8.732;2023-04-08T06:41:06;20.60;79.50
8002;DHT22;4046;48.774;8.732;2023-04-08T06:43:33;20.50;79.30
8002;DHT22;4046;48.774;8.732;2023-04-08T06:46:00;20.50;79.30
8002;DHT22;4046;48.774;8.732;2023-04-08T06:48:26;20.60;79.40
8002;DHT22;4046;48.774;8.732;2023-04-08T06:50:56;20.60;79.40
8002;DHT22;4046;48.774;8.732;2023-04-08T06:53:23;20.60;79.40
8002;DHT22;4046;48.774;8.732;2023-04-08T06:55:49;20.60;79.40
8002;DHT22;4046;48.774;8.732;2023-04-08T06:58:16;20.60;79.40
8002;DHT22;4046;48.774;8.732;2023-04-08T07:00:43;20.60;79.40
8002;DHT22;4046;48.774;8.732;2023-04-08T07:03:09;20.60;79.40
8002;DHT22;4046;48.774;8.732;2023-04-08T07:05:38;20.50;79.30
8002;DHT22;4046;48.774;8.732;2023-04-08T07:08:05;20.50;79.30
8002;DHT22;4046;48.774;8.732;2023-04-08T07:10:31;20.60;79.40
8002;DHT22;4046;48.774;8.732;2023-04-08T07:12:57;20.50;79.30
8002;DHT22;4046;48.774;8.732;2023-04-08T07:15:23;20.50;79.30
8002;DHT22;4046;48.774;8.732;2023-04-08T07:17:49;20.50;79.40
8002;DHT22;4046;48.774;8.732;2023-04-08T07:20:16;20.50;79.40
8002;DHT22;4046;48.774;8.732;2023-04-08T07:22:43;20.50;79.30
8002;DHT22;4046;48.774;8.732;2023-04-08T07:25:09;20.50;79.30
8002;DHT22;4046;48.774;8.732;2023-04-08T07:27:35;20.50;79.30
8002;DHT22;4046;48.774;8.732;2023-04-08T07:30:01;20.60;79.40
8002;DHT22;4046;48.774;8.732;2023-04-08T07:32:28;20.60;79.30
8002;DHT22;4046;48.774;8.732;2023-04-08T07:34:54;20.70;79.30
8002;DHT22;4046;48.774;8.732;2023-04-08T07:37:20;20.70;79.30
8002;DHT22;4046;48.774;8.732;2023-04-08T07:39:46;20.70;79.30
8002;DHT22;4046;48.774;8.732;2023-04-08T07:42:12;20.70;79.30
8002;DHT22;4046;48.774;8.732;2023-04-08T07:44:39;20.70;79.30
8002;DHT22;4046;48.774;8.732;2023-04-08T07:47:05;20.60;79.30
8002;DHT22;4046;48.774;8.732;2023-04-08T07:49:31;20.60;79.30
8002;DHT22;4046;48.774;8.732;2023-04-08T07:51:57;20.60;79.30
8002;DHT22;4046;48.774;8.732;2023-04-08T07:54:24;20.60;79.20
8002;DHT22;4046;48.774;8.732;2023-04-08T07:56:50;20.60;79.30
8002;DHT22;4046;48.774;8.732;2023-04-08T07:59:16;20.60;79.30
8002;DHT22;4046;48.774;8.732;2023-04-08T08:01:42;20.60;79.30
8002;DHT22;4046;48.774;8.732;2023-04-08T08:04:08;20.60;79.30
8002;DHT22;4046;48.774;8.732;2023-04-08T08:06:35;20.60;79.30
8002;DHT22;4046;48.774;8.732;2023-04-08T08:09:01;20.60;79.20
8002;DHT22;4046;48.774;8.732;2023-04-08T08:11:27;20.80;79.30
8002;DHT22;4046;48.774;8.732;2023-04-08T08:13:53;20.90;79.10
8002;DHT22;4046;48.774;8.732;2023-04-08T08:16:21;20.90;79.00
8002;DHT22;4046;48.774;8.732;2023-04-08T08:18:47;21.00;79.00
8002;DHT22;4046;48.774;8.732;2023-04-08T08:21:13;21.00;78.90
8002;DHT22;4046;48.774;8.732;2023-04-08T08:23:40;20.90;78.80
8002;DHT22;4046;48.774;8.732;2023-04-08T08:26:08;20.90;78.90
8002;DHT22;4046;48.774;8.732;2023-04-08T08:28:35;21.00;78.80
8002;DHT22;4046;48.774;8.732;2023-04-08T08:31:01;21.00;78.70
8002;DHT22;4046;48.774;8.732;2023-04-08T08:33:28;21.10;78.80
8002;DHT22;4046;48.774;8.732;2023-04-08T08:35:54;21.10;78.80
8002;DHT22;4046;48.774;8.732;2023-04-08T08:38:23;21.10;78.80
8002;DHT22;4046;48.774;8.732;2023-04-08T08:40:56;21.10;78.70
8002;DHT22;4046;48.774;8.732;2023-04-08T08:43:27;21.10;78.60
8002;DHT22;4046;48.774;8.732;2023-04-08T08:45:53;21.20;78.80
8002;DHT22;4046;48.774;8.732;2023-04-08T08:48:20;21.10;78.60
8002;DHT22;4046;48.774;8.732;2023-04-08T08:50:46;21.20;78.80
8002;DHT22;4046;48.774;8.732;2023-04-08T08:53:12;21.20;78.70
8002;DHT22;4046;48.774;8.732;2023-04-08T08:55:39;21.20;78.70
8002;DHT22;4046;48.774;8.732;2023-04-08T08:58:05;21.20;78.60
8002;DHT22;4046;48.774;8.732;2023-04-08T09:00:36;21.20;78.60
8002;DHT22;4046;48.774;8.732;2023-04-08T09:03:23;21.10;78.50
8002;DHT22;4046;48.774;8.732;2023-04-08T09:05:54;21.20;78.60
8002;DHT22;4046;48.774;8.732;2023-04-08T09:08:31;21.20;78.50
8002;DHT22;4046;48.774;8.732;2023-04-08T09:11:16;21.20;78.50
8002;DHT22;4046;48.774;8.732;2023-04-08T09:13:44;21.20;78.50
8002;DHT22;4046;48.774;8.732;2023-04-08T09:16:18;21.30;78.60
8002;DHT22;4046;48.774;8.732;2023-04-08T09:18:46;21.20;78.50
8002;DHT22;4046;48.774;8.732;2023-04-08T09:21:17;21.30;78.50
8002;DHT22;4046;48.774;8.732;2023-04-08T09:23:50;21.30;78.50
8002;DHT22;4046;48.774;8.732;2023-04-08T09:26:19;21.40;78.50
8002;DHT22;4046;48.774;8.732;2023-04-08T09:31:31;21.40;78.40
8002;DHT22;4046;48.774;8.732;2023-04-08T09:33:59;21.50;78.40
8002;DHT22;4046;48.774;8.732;2023-04-08T09:36:27;21.50;78.30
8002;DHT22;4046;48.774;8.732;2023-04-08T09:38:54;21.50;78.30
8002;DHT22;4046;48.774;8.732;2023-04-08T09:41:21;21.50;78.30
8002;DHT22;4046;48.774;8.732;2023-04-08T09:43:52;21.60;78.30
8002;DHT22;4046;48.774;8.732;2023-04-08T09:46:28;21.50;78.20
8002;DHT22;4046;48.774;8.732;2023-04-08T09:51:47;21.50;78.30
8002;DHT22;4046;48.774;8.732;2023-04-08T09:54:19;21.50;78.20
8002;DHT22;4046;48.774;8.732;2023-04-08T09:57:08;21.50;78.10
8002;DHT22;4046;48.774;8.732;2023-04-08T09:59:36;21.60;78.90
8002;DHT22;4046;48.774;8.732;2023-04-08T10:02:08;21.60;78.00
8002;DHT22;4046;48.774;8.732;2023-04-08T10:04:39;21.50;78.00
8002;DHT22;4046;48.774;8.732;2023-04-08T10:07:07;21.50;78.00
8002;DHT22;4046;48.774;8.732;2023-04-08T10:09:34;21.50;78.00
8002;DHT22;4046;48.774;8.732;2023-04-08T10:12:02;21.50;78.10
8002;DHT22;4046;48.774;8.732;2023-04-08T10:14:29;21.40;78.10
8002;DHT22;4046;48.774;8.732;2023-04-08T10:17:26;21.40;78.10
8002;DHT22;4046;48.774;8.732;2023-04-08T10:19:53;21.40;78.10
8002;DHT22;4046;48.774;8.732;2023-04-08T10:27:44;21.20;78.20
8002;DHT22;4046;48.774;8.732;2023-04-08T10:33:17;21.20;78.40
8002;DHT22;4046;48.774;8.732;2023-04-08T10:36:10;21.10;78.30
8002;DHT22;4046;48.774;8.732;2023-04-08T10:38:35;21.00;78.30
8002;DHT22;4046;48.774;8.732;2023-04-08T10:41:01;21.00;78.40
8002;DHT22;4046;48.774;8.732;2023-04-08T10:43:35;20.90;78.40
8002;DHT22;4046;48.774;8.732;2023-04-08T10:46:02;20.90;78.40
8002;DHT22;4046;48.774;8.732;2023-04-08T10:48:29;20.90;78.50
8002;DHT22;4046;48.774;8.732;2023-04-08T10:51:00;20.80;78.50
8002;DHT22;4046;48.774;8.732;2023-04-08T10:53:32;20.80;78.50
8002;DHT22;4046;48.774;8.732;2023-04-08T10:56:10;20.80;78.60
8002;DHT22;4046;48.774;8.732;2023-04-08T10:58:51;20.70;78.50
8002;DHT22;4046;48.774;8.732;2023-04-08T11:01:18;20.70;78.60
8002;DHT22;4046;48.774;8.732;2023-04-08T11:03:44;20.70;78.60
8002;DHT22;4046;48.774;8.732;2023-04-08T11:06:11;20.60;78.50
8002;DHT22;4046;48.774;8.732;2023-04-08T11:08:37;20.60;78.60
8002;DHT22;4046;48.774;8.732;2023-04-08T11:11:05;20.50;78.50
8002;DHT22;4046;48.774;8.732;2023-04-08T11:13:35;20.50;78.60
8002;DHT22;4046;48.774;8.732;2023-04-08T11:16:03;20.50;78.70
8002;DHT22;4046;48.774;8.732;2023-04-08T11:18:30;20.40;78.60
8002;DHT22;4046;48.774;8.732;2023-04-08T11:20:57;20.40;78.60
8002;DHT22;4046;48.774;8.732;2023-04-08T11:23:26;20.40;78.70
8002;DHT22;4046;48.774;8.732;2023-04-08T11:25:53;20.40;79.60
8002;DHT22;4046;48.774;8.732;2023-04-08T11:28:19;20.30;78.70
8002;DHT22;4046;48.774;8.732;2023-04-08T11:30:47;20.30;78.80
8002;DHT22;4046;48.774;8.732;2023-04-08T11:33:13;20.30;78.80
8002;DHT22;4046;48.774;8.732;2023-04-08T11:35:40;20.20;78.70
8002;DHT22;4046;48.774;8.732;2023-04-08T11:38:10;20.20;78.70
8002;DHT22;4046;48.774;8.732;2023-04-08T11:40:37;20.20;78.70
8002;DHT22;4046;48.774;8.732;2023-04-08T11:43:10;20.20;78.70
8002;DHT22;4046;48.774;8.732;2023-04-08T11:45:41;20.20;78.70
8002;DHT22;4046;48.774;8.732;2023-04-08T11:48:11;20.20;78.70
8002;DHT22;4046;48.774;8.732;2023-04-08T11:50:39;20.10;78.70
8002;DHT22;4046;48.774;8.732;2023-04-08T11:53:20;20.10;78.80
8002;DHT22;4046;48.774;8.732;2023-04-08T11:55:47;20.10;78.70
8002;DHT22;4046;48.774;8.732;2023-04-08T11:58:14;20.10;78.80
8002;DHT22;4046;48.774;8.732;2023-04-08T12:00:40;20.10;78.70
8002;DHT22;4046;48.774;8.732;2023-04-08T12:03:08;20.10;78.80
8002;DHT22;4046;48.774;8.732;2023-04-08T12:05:34;20.10;78.80
8002;DHT22;4046;48.774;8.732;2023-04-08T12:08:01;20.10;78.80
8002;DHT22;4046;48.774;8.732;2023-04-08T12:10:27;20.10;78.70
8002;DHT22;4046;48.774;8.732;2023-04-08T12:12:54;20.10;78.70
8002;DHT22;4046;48.774;8.732;2023-04-08T12:15:20;20.00;78.60
8002;DHT22;4046;48.774;8.732;2023-04-08T12:17:47;20.00;78.60
8002;DHT22;4046;48.774;8.732;2023-04-08T12:20:13;20.00;78.60
8002;DHT22;4046;48.774;8.732;2023-04-08T12:22:39;20.00;78.70
8002;DHT22;4046;48.774;8.732;2023-04-08T12:25:05;20.00;78.70
8002;DHT22;4046;48.774;8.732;2023-04-08T12:27:32;20.00;78.70
8002;DHT22;4046;48.774;8.732;2023-04-08T12:29:59;19.90;78.70
8002;DHT22;4046;48.774;8.732;2023-04-08T12:32:25;19.90;78.60
8002;DHT22;4046;48.774;8.732;2023-04-08T12:34:52;19.90;78.60
8002;DHT22;4046;48.774;8.732;2023-04-08T12:37:18;19.90;78.60
8002;DHT22;4046;48.774;8.732;2023-04-08T12:39:46;19.90;78.60
8002;DHT22;4046;48.774;8.732;2023-04-08T12:42:13;19.90;78.60
8002;DHT22;4046;48.774;8.732;2023-04-08T12:44:40;19.90;78.70
8002;DHT22;4046;48.774;8.732;2023-04-08T12:47:06;19.90;78.70
8002;DHT22;4046;48.774;8.732;2023-04-08T12:49:32;19.90;78.60
8002;DHT22;4046;48.774;8.732;2023-04-08T12:51:59;19.90;78.60
8002;DHT22;4046;48.774;8.732;2023-04-08T12:54:25;19.90;78.60
8002;DHT22;4046;48.774;8.732;2023-04-08T12:56:51;19.90;78.50
8002;DHT22;4046;48.774;8.732;2023-04-08T12:59:17;19.90;78.70
8002;DHT22;4046;48.774;8.732;2023-04-08T13:01:44;19.80;78.60
8002;DHT22;4046;48.774;8.732;2023-04-08T13:04:10;19.80;78.70
8002;DHT22;4046;48.774;8.732;2023-04-08T13:06:36;19.80;78.60
8002;DHT22;4046;48.774;8.732;2023-04-08T13:09:02;19.70;78.60
8002;DHT22;4046;48.774;8.732;2023-04-08T13:11:28;19.70;78.70
8002;DHT22;4046;48.774;8.732;2023-04-08T13:13:55;19.70;78.60
8002;DHT22;4046;48.774;8.732;2023-04-08T13:16:21;19.70;78.60
8002;DHT22;4046;48.774;8.732;2023-04-08T13:18:47;19.70;78.60
8002;DHT22;4046;48.774;8.732;2023-04-08T13:21:13;19.70;78.60
8002;DHT22;4046;48.774;8.732;2023-04-08T13:23:39;19.70;78.60
8002;DHT22;4046;48.774;8.732;2023-04-08T13:26:06;19.70;78.50
8002;DHT22;4046;48.774;8.732;2023-04-08T13:28:32;19.70;78.50
8002;DHT22;4046;48.774;8.732;2023-04-08T13:30:58;19.80;78.50
8002;DHT22;4046;48.774;8.732;2023-04-08T13:33:24;19.80;78.50
8002;DHT22;4046;48.774;8.732;2023-04-08T13:35:50;19.80;78.40
8002;DHT22;4046;48.774;8.732;2023-04-08T13:38:16;19.80;78.40
8002;DHT22;4046;48.774;8.732;2023-04-08T13:40:43;19.90;78.40
8002;DHT22;4046;48.774;8.732;2023-04-08T13:43:10;19.80;78.30
8002;DHT22;4046;48.774;8.732;2023-04-08T13:45:36;19.80;78.30
8002;DHT22;4046;48.774;8.732;2023-04-08T13:48:02;19.80;78.40
8002;DHT22;4046;48.774;8.732;2023-04-08T13:50:29;19.80;78.40
8002;DHT22;4046;48.774;8.732;2023-04-08T13:52:56;19.80;78.40
8002;DHT22;4046;48.774;8.732;2023-04-08T13:55:22;19.80;78.50
8002;DHT22;4046;48.774;8.732;2023-04-08T13:57:48;19.80;78.50
8002;DHT22;4046;48.774;8.732;2023-04-08T14:00:15;19.80;78.50
8002;DHT22;4046;48.774;8.732;2023-04-08T14:02:41;19.70;78.40
8002;DHT22;4046;48.774;8.732;2023-04-08T14:05:07;19.70;78.30
8002;DHT22;4046;48.774;8.732;2023-04-08T14:07:34;19.70;78.40
8002;DHT22;4046;48.774;8.732;2023-04-08T14:10:00;19.70;78.50
8002;DHT22;4046;48.774;8.732;2023-04-08T14:12:26;19.70;78.50
8002;DHT22;4046;48.774;8.732;2023-04-08T14:14:52;19.70;78.40
8002;DHT22;4046;48.774;8.732;2023-04-08T14:17:18;19.70;78.50
8002;DHT22;4046;48.774;8.732;2023-04-08T14:19:45;19.60;78.40
8002;DHT22;4046;48.774;8.732;2023-04-08T14:22:11;19.60;78.50
8002;DHT22;4046;48.774;8.732;2023-04-08T14:24:37;19.60;78.50
8002;DHT22;4046;48.774;8.732;2023-04-08T14:27:03;19.60;78.40
8002;DHT22;4046;48.774;8.732;2023-04-08T14:29:29;19.60;78.40
8002;DHT22;4046;48.774;8.732;2023-04-08T14:31:56;19.60;78.40
8002;DHT22;4046;48.774;8.732;2023-04-08T14:34:22;19.60;78.40
8002;DHT22;4046;48.774;8.732;2023-04-08T14:36:48;19.60;78.40
8002;DHT22;4046;48.774;8.732;2023-04-08T14:39:14;19.60;78.50
8002;DHT22;4046;48.774;8.732;2023-04-08T14:41:41;19.60;78.50
8002;DHT22;4046;48.774;8.732;2023-04-08T14:44:07;19.60;78.50
8002;DHT22;4046;48.774;8.732;2023-04-08T14:46:33;19.60;78.40
8002;DHT22;4046;48.774;8.732;2023-04-08T14:48:59;19.60;78.40
8002;DHT22;4046;48.774;8.732;2023-04-08T14:51:26;19.60;78.40
8002;DHT22;4046;48.774;8.732;2023-04-08T14:53:52;19.60;78.30
8002;DHT22;4046;48.774;8.732;2023-04-08T14:56:18;19.60;78.40
8002;DHT22;4046;48.774;8.732;2023-04-08T14:58:44;19.60;78.30
8002;DHT22;4046;48.774;8.732;2023-04-08T15:01:10;19.60;78.20
8002;DHT22;4046;48.774;8.732;2023-04-08T15:03:36;19.60;78.20
8002;DHT22;4046;48.774;8.732;2023-04-08T15:06:03;19.60;78.20
8002;DHT22;4046;48.774;8.732;2023-04-08T15:08:29;19.60;78.20
8002;DHT22;4046;48.774;8.732;2023-04-08T15:10:55;19.60;78.20
8002;DHT22;4046;48.774;8.732;2023-04-08T15:13:22;19.60;78.30
8002;DHT22;4046;48.774;8.732;2023-04-08T15:15:48;19.50;78.20
8002;DHT22;4046;48.774;8.732;2023-04-08T15:18:14;19.50;78.20
8002;DHT22;4046;48.774;8.732;2023-04-08T15:20:41;19.60;78.20
8002;DHT22;4046;48.774;8.732;2023-04-08T15:23:07;19.50;78.10
8002;DHT22;4046;48.774;8.732;2023-04-08T15:25:33;19.50;78.10
8002;DHT22;4046;48.774;8.732;2023-04-08T15:28:00;19.50;78.20
8002;DHT22;4046;48.774;8.732;2023-04-08T15:30:27;19.50;78.30
8002;DHT22;4046;48.774;8.732;2023-04-08T15:33:01;19.50;78.20
8002;DHT22;4046;48.774;8.732;2023-04-08T15:35:37;19.50;78.20
8002;DHT22;4046;48.774;8.732;2023-04-08T15:38:03;19.50;78.30
8002;DHT22;4046;48.774;8.732;2023-04-08T15:40:32;19.50;78.30
8002;DHT22;4046;48.774;8.732;2023-04-08T15:42:58;19.40;78.30
8002;DHT22;4046;48.774;8.732;2023-04-08T15:45:25;19.40;78.30
8002;DHT22;4046;48.774;8.732;2023-04-08T15:47:51;19.40;78.30
8002;DHT22;4046;48.774;8.732;2023-04-08T15:50:17;19.40;78.30
8002;DHT22;4046;48.774;8.732;2023-04-08T15:52:44;19.40;78.40
8002;DHT22;4046;48.774;8.732;2023-04-08T15:55:10;19.40;78.40
8002;DHT22;4046;48.774;8.732;2023-04-08T15:57:36;19.30;78.30
8002;DHT22;4046;48.774;8.732;2023-04-08T16:00:10;19.30;78.30
8002;DHT22;4046;48.774;8.732;2023-04-08T16:02:36;19.30;78.30
8002;DHT22;4046;48.774;8.732;2023-04-08T16:05:02;19.20;78.30
8002;DHT22;4046;48.774;8.732;2023-04-08T16:07:29;19.20;78.40
8002;DHT22;4046;48.774;8.732;2023-04-08T16:09:55;19.20;78.50
8002;DHT22;4046;48.774;8.732;2023-04-08T16:12:21;19.20;78.50
8002;DHT22;4046;48.774;8.732;2023-04-08T16:14:50;19.20;78.50
8002;DHT22;4046;48.774;8.732;2023-04-08T16:17:16;19.10;78.50
8002;DHT22;4046;48.774;8.732;2023-04-08T16:19:43;19.10;78.50
8002;DHT22;4046;48.774;8.732;2023-04-08T16:22:09;19.10;78.60
8002;DHT22;4046;48.774;8.732;2023-04-08T16:24:35;19.10;78.60
8002;DHT22;4046;48.774;8.732;2023-04-08T16:27:01;19.10;78.60